Grand Princess — ZCBU5 — position and weather

sailwx.info

Track history (hours):
 
Tides and Currents Weather Stations Pressure Air Temp Water Temp Dewpoint Dewpoint Depression Visibility Wind Speed Wind Dir Waves Ship Positions

Grand Princess

Operator: Princess Cruises

Last reported at 2018-May-23 19:00 UTC. Time now 2018-May-24 00:34 UTC.
Position N 50°48' W 129°42'.

Length 289.5 m; beam 36 m; draft 8.5 m.

Type: Passenger vessel. MMSI: 310327000.

Wind from 320 at 10 knots

Barometer 1012.2 mb
Air temperature 11.8 ° C
Visibility: greater than 10.8 NM
Dewpoint 6.8 ° C
Water temperature 11.0 ° C

Date/timePositionNaut miles runAvg speedWind from/ knotsBaromVisibWave heightAir tempDewpointWater temp
2018-May-23 19:00N 50°48' W 129°42'10420.8 320 / 101012.210.8 11.8 6.811.0
2018-May-23 14:00N 52°00' W 131°42'37613.4 290 / 141012.210.8 9.5 7.411.0
2018-May-22 10:00N 58°06' W 134°12'   100 / 131005.910.8 10.0 7.9 8.0
2018-May-19 12:52N 55°09' W 131°10'1018.6
2018-May-19 12:19N 54°59' W 131°08'620.0
2018-May-19 12:00N 54°53' W 131°07'1219.9
2018-May-19 11:23N 54°41' W 131°14'719.2
2018-May-19 11:00N 54°34' W 131°17'918.9
2018-May-19 10:30N 54°25' W 131°09'918.0
2018-May-19 10:00N 54°17' W 131°03'918.3
2018-May-19 09:30N 54°08' W 131°01'1019.0
2018-May-19 09:00N 53°59' W 130°59'919.0
2018-May-19 08:30N 53°49' W 130°58'1019.2
2018-May-19 08:00N 53°40' W 130°55'1019.4
2018-May-19 07:30N 53°30' W 130°53'1019.3
2018-May-19 07:00N 53°21' W 130°49'1019.3
2018-May-19 06:30N 53°11' W 130°45'1019.4
2018-May-19 06:00N 53°02' W 130°40'919.3
2018-May-19 05:31N 52°53' W 130°36'1019.6
2018-May-19 05:00N 52°43' W 130°31'1020.1
2018-May-19 04:30N 52°34' W 130°27'1019.6
2018-May-19 04:00N 52°24' W 130°22'1019.2
2018-May-19 03:30N 52°15' W 130°18'918.8
2018-May-19 03:00N 52°06' W 130°14'918.8
2018-May-19 02:30N 51°57' W 130°09'918.7
2018-May-19 02:00N 51°48' W 130°04'169.0
2018-May-19 02:00N 51°48' W 130°06'919.3 270 / 301017.410.8 10.0 7.911.0
2018-May-19 01:30N 51°40' W 129°59'918.6
2018-May-19 01:00N 51°31' W 129°55'1019.3
2018-May-19 00:30N 51°22' W 129°50'919.0
2018-May-19 00:00N 51°12' W 129°46'1019.2
2018-May-18 23:30N 51°04' W 129°40'1019.4
2018-May-18 23:00N 50°55' W 129°34'1019.1
2018-May-18 22:30N 50°46' W 129°29'919.0
2018-May-18 22:00N 50°37' W 129°24'1019.4
2018-May-18 21:30N 50°28' W 129°19'1019.6
2018-May-18 21:00N 50°18' W 129°14'1019.5
2018-May-18 20:30N 50°09' W 129°09'1019.4
2018-May-18 20:00N 49°60' W 129°04'1319.2
2018-May-18 19:19N 49°47' W 128°57'619.2
2018-May-18 19:00N 49°42' W 128°54'10019.9
2018-May-18 14:00N 48°06' W 128°12'58519.1 320 / 161015.110.8 9.0 6.910.0
2018-May-17 07:23N 38°49' W 124°04'719.9
2018-May-17 07:00N 38°44' W 123°58'1019.5
2018-May-17 06:30N 38°36' W 123°50'1019.1
2018-May-17 06:00N 38°28' W 123°43'2118.8
2018-May-17 06:00N 38°30' W 123°42'1020.6 330 / 201015.810.8 12.0 7.913.0
2018-May-17 05:30N 38°22' W 123°35'918.4
2018-May-17 05:00N 38°15' W 123°27'715.1
2018-May-17 04:30N 38°09' W 123°20'5 9.7
2018-May-17 04:00N 38°06' W 123°16'510.1
2018-May-17 03:30N 38°02' W 123°12'510.3
2018-May-17 03:00N 37°58' W 123°07'510.5
2018-May-17 02:30N 37°55' W 123°02'510.5
2018-May-17 02:00N 37°53' W 122°56'510.1
2018-May-17 01:30N 37°50' W 122°50'611.7
2018-May-17 01:00N 37°47' W 122°44'5 9.8
2018-May-17 00:31N 37°46' W 122°38'714.9
2018-May-17 00:01N 37°49' W 122°29'4 8.7
2018-May-16 23:30N 37°48' W 122°24'0 0.0
2018-May-16 23:00N 37°48' W 122°24'0 0.0
2018-May-16 22:30N 37°48' W 122°24'0 0.0
2018-May-16 22:00N 37°48' W 122°24'0 0.0
2018-May-16 21:30N 37°48' W 122°24'0 0.0
2018-May-16 21:00N 37°48' W 122°24'0 0.0
2018-May-16 20:29N 37°48' W 122°24'0 0.0
2018-May-16 19:59N 37°48' W 122°24'0 0.0
2018-May-16 19:29N 37°48' W 122°24'0 0.0
2018-May-16 18:59N 37°48' W 122°24'0 0.0
2018-May-16 18:26N 37°48' W 122°24'0 0.0
2018-May-16 17:58N 37°48' W 122°24'0 0.0
2018-May-16 17:25N 37°48' W 122°24'0 0.0
2018-May-16 16:58N 37°48' W 122°24'0 0.0
2018-May-16 16:25N 37°48' W 122°24'0 0.0
2018-May-16 16:00N 37°48' W 122°24'0 0.0
2018-May-16 15:30N 37°48' W 122°24'0 0.0
2018-May-16 15:00N 37°48' W 122°24'0 0.0
2018-May-16 14:30N 37°48' W 122°24'0 0.0
2018-May-16 14:00N 37°48' W 122°24'0 0.3
2018-May-16 13:30N 37°48' W 122°24'1 2.5
2018-May-16 13:00N 37°49' W 122°25'611.5
2018-May-16 12:30N 37°48' W 122°32'714.0
2018-May-16 12:00N 37°46' W 122°41'611.4
2018-May-16 11:30N 37°47' W 122°48'510.3
2018-May-16 11:00N 37°50' W 122°54'510.3
2018-May-16 10:30N 37°52' W 122°59'510.5
2018-May-16 10:00N 37°55' W 123°05'510.3
2018-May-16 09:30N 37°58' W 123°11'510.4
2018-May-16 09:00N 38°01' W 123°15'510.5
2018-May-16 08:30N 38°05' W 123°20'611.9
2018-May-16 08:01N 38°10' W 123°24'1121.5
2018-May-16 07:30N 38°18' W 123°33'1122.0
2018-May-16 07:01N 38°27' W 123°41'1121.9
2018-May-16 06:30N 38°36' W 123°50'2 3.5
2018-May-16 06:00N 38°36' W 123°48'33621.0 280 / 51017.710.8 12.0 7.914.0
2018-May-15 14:00N 44°06' W 125°12'1524.3 200 / 101011.1 5.4 10.5 9.514.0
2018-May-15 13:23N 44°21' W 125°14'821.5
2018-May-15 13:01N 44°29' W 125°14'1721.5
2018-May-15 12:14N 44°45' W 125°15'521.3
2018-May-15 12:00N 44°50' W 125°15'1121.3
2018-May-15 11:30N 45°01' W 125°15'1221.2
2018-May-15 10:56N 45°13' W 125°15'921.1
2018-May-15 10:30N 45°22' W 125°16'1121.2
2018-May-15 10:00N 45°33' W 125°16'1121.4
2018-May-15 09:31N 45°43' W 125°16'1121.4
2018-May-15 09:00N 45°54' W 125°17'1121.3
2018-May-15 08:30N 46°05' W 125°17'1121.4
2018-May-15 08:00N 46°15' W 125°17'1121.2
2018-May-15 07:31N 46°26' W 125°17'1621.3
2018-May-15 06:44N 46°42' W 125°17'521.2
2018-May-15 06:30N 46°47' W 125°17'1121.1
2018-May-15 06:01N 46°58' W 125°17'1121.3
2018-May-15 05:30N 47°09' W 125°18'1121.5
2018-May-15 04:58N 47°20' W 125°18'1721.3
2018-May-15 04:11N 47°37' W 125°18'821.1
2018-May-15 03:47N 47°45' W 125°18'619.7
2018-May-15 03:30N 47°51' W 125°19'1019.8
2018-May-15 03:00N 48°00' W 125°16'1020.2
2018-May-15 02:30N 48°10' W 125°12'1020.5
2018-May-15 02:00N 48°20' W 125°08'1020.2
2018-May-15 01:30N 48°29' W 125°02'1019.7
2018-May-15 01:00N 48°32' W 124°47'1019.9
2018-May-15 00:30N 48°28' W 124°33'1019.3
2018-May-15 00:00N 48°24' W 124°20'918.7
2018-May-14 23:30N 48°21' W 124°07'918.7
2018-May-14 23:00N 48°17' W 123°54'816.5
2018-May-14 22:30N 48°16' W 123°41'814.1
2018-May-14 21:55N 48°17' W 123°29'613.7
2018-May-14 21:30N 48°22' W 123°25'3 0.4
2018-May-14 13:51N 48°25' W 123°24'1 2.2
2018-May-14 13:29N 48°24' W 123°24'510.9
2018-May-14 12:59N 48°19' W 123°25'811.5
2018-May-14 12:20N 48°13' W 123°33'912.6
2018-May-14 11:38N 48°13' W 123°46'212.0
2018-May-14 11:29N 48°13' W 123°49'611.6
2018-May-14 11:00N 48°14' W 123°57'612.4
2018-May-14 10:30N 48°17' W 124°05'612.4
2018-May-14 10:01N 48°19' W 124°14'612.5
2018-May-14 09:30N 48°22' W 124°22'612.8
2018-May-14 09:00N 48°25' W 124°31'816.6
2018-May-14 08:30N 48°28' W 124°42'816.2
2018-May-14 08:00N 48°28' W 124°55'816.6
2018-May-14 07:30N 48°29' W 125°07'816.4
2018-May-14 07:01N 48°31' W 125°19'816.7
2018-May-14 06:30N 48°36' W 125°29'816.7
2018-May-14 06:00N 48°41' W 125°39'816.4
2018-May-14 05:30N 48°46' W 125°49'816.6
2018-May-14 05:00N 48°51' W 125°59'816.9
2018-May-14 04:31N 48°56' W 126°09'816.7
2018-May-14 04:00N 49°00' W 126°20'816.7
2018-May-14 03:30N 49°05' W 126°30'816.6
2018-May-14 03:01N 49°10' W 126°40'714.4
2018-May-14 02:30N 49°16' W 126°46'815.5
2018-May-14 02:00N 49°24' W 126°47'918.7
2018-May-14 01:30N 49°32' W 126°55'1019.1
2018-May-14 01:00N 49°39' W 127°05'1019.0
2018-May-14 00:30N 49°40' W 127°19'1019.4
2018-May-14 00:00N 49°41' W 127°34'917.8
2018-May-13 23:30N 49°44' W 127°47'917.0
2018-May-13 23:00N 49°49' W 127°57'916.9
2018-May-13 22:28N 49°55' W 128°08'1116.7
2018-May-13 21:50N 50°03' W 128°19'716.6
2018-May-13 21:26N 50°08' W 128°25'716.7
2018-May-13 21:01N 50°14' W 128°32'916.5
2018-May-13 20:28N 50°21' W 128°40'1416.6
2018-May-13 19:39N 50°32' W 128°53'216.6
2018-May-13 19:30N 50°34' W 128°55'  
Track history (hours):
 
Tides and Currents Weather Stations Pressure Air Temp Water Temp Dewpoint Dewpoint Depression Visibility Wind Speed Wind Dir Waves Ship Positions

Grand Princess

Operator: Princess Cruises

Last reported at 2018-May-23 19:00 UTC. Time now 2018-May-24 00:34 UTC.
Position N 50°48' W 129°42'.

Length 289.5 m; beam 36 m; draft 8.5 m.

Type: Passenger vessel. MMSI: 310327000.

Wind from 320 at 10 knots

Barometer 1012.2 mb
Air temperature 11.8 ° C
Visibility: greater than 10.8 NM
Dewpoint 6.8 ° C
Water temperature 11.0 ° C

Date/timePositionNaut miles runAvg speedWind from/ knotsBaromVisibWave heightAir tempDewpointWater temp
2018-May-23 19:00N 50°48' W 129°42'10420.8 320 / 101012.210.8 11.8 6.811.0
2018-May-23 14:00N 52°00' W 131°42'37613.4 290 / 141012.210.8 9.5 7.411.0
2018-May-22 10:00N 58°06' W 134°12'   100 / 131005.910.8 10.0 7.9 8.0
2018-May-19 12:52N 55°09' W 131°10'1018.6
2018-May-19 12:19N 54°59' W 131°08'620.0
2018-May-19 12:00N 54°53' W 131°07'1219.9
2018-May-19 11:23N 54°41' W 131°14'719.2
2018-May-19 11:00N 54°34' W 131°17'918.9
2018-May-19 10:30N 54°25' W 131°09'918.0
2018-May-19 10:00N 54°17' W 131°03'918.3
2018-May-19 09:30N 54°08' W 131°01'1019.0
2018-May-19 09:00N 53°59' W 130°59'919.0
2018-May-19 08:30N 53°49' W 130°58'1019.2
2018-May-19 08:00N 53°40' W 130°55'1019.4
2018-May-19 07:30N 53°30' W 130°53'1019.3
2018-May-19 07:00N 53°21' W 130°49'1019.3
2018-May-19 06:30N 53°11' W 130°45'1019.4
2018-May-19 06:00N 53°02' W 130°40'919.3
2018-May-19 05:31N 52°53' W 130°36'1019.6
2018-May-19 05:00N 52°43' W 130°31'1020.1
2018-May-19 04:30N 52°34' W 130°27'1019.6
2018-May-19 04:00N 52°24' W 130°22'1019.2
2018-May-19 03:30N 52°15' W 130°18'918.8
2018-May-19 03:00N 52°06' W 130°14'918.8
2018-May-19 02:30N 51°57' W 130°09'918.7
2018-May-19 02:00N 51°48' W 130°04'169.0
2018-May-19 02:00N 51°48' W 130°06'919.3 270 / 301017.410.8 10.0 7.911.0
2018-May-19 01:30N 51°40' W 129°59'918.6
2018-May-19 01:00N 51°31' W 129°55'1019.3
2018-May-19 00:30N 51°22' W 129°50'919.0
2018-May-19 00:00N 51°12' W 129°46'1019.2
2018-May-18 23:30N 51°04' W 129°40'1019.4
2018-May-18 23:00N 50°55' W 129°34'1019.1
2018-May-18 22:30N 50°46' W 129°29'919.0
2018-May-18 22:00N 50°37' W 129°24'1019.4
2018-May-18 21:30N 50°28' W 129°19'1019.6
2018-May-18 21:00N 50°18' W 129°14'1019.5
2018-May-18 20:30N 50°09' W 129°09'1019.4
2018-May-18 20:00N 49°60' W 129°04'1319.2
2018-May-18 19:19N 49°47' W 128°57'619.2
2018-May-18 19:00N 49°42' W 128°54'10019.9
2018-May-18 14:00N 48°06' W 128°12'58519.1 320 / 161015.110.8 9.0 6.910.0
2018-May-17 07:23N 38°49' W 124°04'719.9
2018-May-17 07:00N 38°44' W 123°58'1019.5
2018-May-17 06:30N 38°36' W 123°50'1019.1
2018-May-17 06:00N 38°28' W 123°43'2118.8
2018-May-17 06:00N 38°30' W 123°42'1020.6 330 / 201015.810.8 12.0 7.913.0
2018-May-17 05:30N 38°22' W 123°35'918.4
2018-May-17 05:00N 38°15' W 123°27'715.1
2018-May-17 04:30N 38°09' W 123°20'5 9.7
2018-May-17 04:00N 38°06' W 123°16'510.1
2018-May-17 03:30N 38°02' W 123°12'510.3
2018-May-17 03:00N 37°58' W 123°07'510.5
2018-May-17 02:30N 37°55' W 123°02'510.5
2018-May-17 02:00N 37°53' W 122°56'510.1
2018-May-17 01:30N 37°50' W 122°50'611.7
2018-May-17 01:00N 37°47' W 122°44'5 9.8
2018-May-17 00:31N 37°46' W 122°38'714.9
2018-May-17 00:01N 37°49' W 122°29'4 8.7
2018-May-16 23:30N 37°48' W 122°24'0 0.0
2018-May-16 23:00N 37°48' W 122°24'0 0.0
2018-May-16 22:30N 37°48' W 122°24'0 0.0
2018-May-16 22:00N 37°48' W 122°24'0 0.0
2018-May-16 21:30N 37°48' W 122°24'0 0.0
2018-May-16 21:00N 37°48' W 122°24'0 0.0
2018-May-16 20:29N 37°48' W 122°24'0 0.0
2018-May-16 19:59N 37°48' W 122°24'0 0.0
2018-May-16 19:29N 37°48' W 122°24'0 0.0
2018-May-16 18:59N 37°48' W 122°24'0 0.0
2018-May-16 18:26N 37°48' W 122°24'0 0.0
2018-May-16 17:58N 37°48' W 122°24'0 0.0
2018-May-16 17:25N 37°48' W 122°24'0 0.0
2018-May-16 16:58N 37°48' W 122°24'0 0.0
2018-May-16 16:25N 37°48' W 122°24'0 0.0
2018-May-16 16:00N 37°48' W 122°24'0 0.0
2018-May-16 15:30N 37°48' W 122°24'0 0.0
2018-May-16 15:00N 37°48' W 122°24'0 0.0
2018-May-16 14:30N 37°48' W 122°24'0 0.0
2018-May-16 14:00N 37°48' W 122°24'0 0.3
2018-May-16 13:30N 37°48' W 122°24'1 2.5
2018-May-16 13:00N 37°49' W 122°25'611.5
2018-May-16 12:30N 37°48' W 122°32'714.0
2018-May-16 12:00N 37°46' W 122°41'611.4
2018-May-16 11:30N 37°47' W 122°48'510.3
2018-May-16 11:00N 37°50' W 122°54'510.3
2018-May-16 10:30N 37°52' W 122°59'510.5
2018-May-16 10:00N 37°55' W 123°05'510.3
2018-May-16 09:30N 37°58' W 123°11'510.4
2018-May-16 09:00N 38°01' W 123°15'510.5
2018-May-16 08:30N 38°05' W 123°20'611.9
2018-May-16 08:01N 38°10' W 123°24'1121.5
2018-May-16 07:30N 38°18' W 123°33'1122.0
2018-May-16 07:01N 38°27' W 123°41'1121.9
2018-May-16 06:30N 38°36' W 123°50'2 3.5
2018-May-16 06:00N 38°36' W 123°48'33621.0 280 / 51017.710.8 12.0 7.914.0
2018-May-15 14:00N 44°06' W 125°12'1524.3 200 / 101011.1 5.4 10.5 9.514.0
2018-May-15 13:23N 44°21' W 125°14'821.5
2018-May-15 13:01N 44°29' W 125°14'1721.5
2018-May-15 12:14N 44°45' W 125°15'521.3
2018-May-15 12:00N 44°50' W 125°15'1121.3
2018-May-15 11:30N 45°01' W 125°15'1221.2
2018-May-15 10:56N 45°13' W 125°15'921.1
2018-May-15 10:30N 45°22' W 125°16'1121.2
2018-May-15 10:00N 45°33' W 125°16'1121.4
2018-May-15 09:31N 45°43' W 125°16'1121.4
2018-May-15 09:00N 45°54' W 125°17'1121.3
2018-May-15 08:30N 46°05' W 125°17'1121.4
2018-May-15 08:00N 46°15' W 125°17'1121.2
2018-May-15 07:31N 46°26' W 125°17'1621.3
2018-May-15 06:44N 46°42' W 125°17'521.2
2018-May-15 06:30N 46°47' W 125°17'1121.1
2018-May-15 06:01N 46°58' W 125°17'1121.3
2018-May-15 05:30N 47°09' W 125°18'1121.5
2018-May-15 04:58N 47°20' W 125°18'1721.3
2018-May-15 04:11N 47°37' W 125°18'821.1
2018-May-15 03:47N 47°45' W 125°18'619.7
2018-May-15 03:30N 47°51' W 125°19'1019.8
2018-May-15 03:00N 48°00' W 125°16'1020.2
2018-May-15 02:30N 48°10' W 125°12'1020.5
2018-May-15 02:00N 48°20' W 125°08'1020.2
2018-May-15 01:30N 48°29' W 125°02'1019.7
2018-May-15 01:00N 48°32' W 124°47'1019.9
2018-May-15 00:30N 48°28' W 124°33'1019.3
2018-May-15 00:00N 48°24' W 124°20'918.7
2018-May-14 23:30N 48°21' W 124°07'918.7
2018-May-14 23:00N 48°17' W 123°54'816.5
2018-May-14 22:30N 48°16' W 123°41'814.1
2018-May-14 21:55N 48°17' W 123°29'613.7
2018-May-14 21:30N 48°22' W 123°25'3 0.4
2018-May-14 13:51N 48°25' W 123°24'1 2.2
2018-May-14 13:29N 48°24' W 123°24'510.9
2018-May-14 12:59N 48°19' W 123°25'811.5
2018-May-14 12:20N 48°13' W 123°33'912.6
2018-May-14 11:38N 48°13' W 123°46'212.0
2018-May-14 11:29N 48°13' W 123°49'611.6
2018-May-14 11:00N 48°14' W 123°57'612.4
2018-May-14 10:30N 48°17' W 124°05'612.4
2018-May-14 10:01N 48°19' W 124°14'612.5
2018-May-14 09:30N 48°22' W 124°22'612.8
2018-May-14 09:00N 48°25' W 124°31'816.6
2018-May-14 08:30N 48°28' W 124°42'816.2
2018-May-14 08:00N 48°28' W 124°55'816.6
2018-May-14 07:30N 48°29' W 125°07'816.4
2018-May-14 07:01N 48°31' W 125°19'816.7
2018-May-14 06:30N 48°36' W 125°29'816.7
2018-May-14 06:00N 48°41' W 125°39'816.4
2018-May-14 05:30N 48°46' W 125°49'816.6
2018-May-14 05:00N 48°51' W 125°59'816.9
2018-May-14 04:31N 48°56' W 126°09'816.7
2018-May-14 04:00N 49°00' W 126°20'816.7
2018-May-14 03:30N 49°05' W 126°30'816.6
2018-May-14 03:01N 49°10' W 126°40'714.4
2018-May-14 02:30N 49°16' W 126°46'815.5
2018-May-14 02:00N 49°24' W 126°47'918.7
2018-May-14 01:30N 49°32' W 126°55'1019.1
2018-May-14 01:00N 49°39' W 127°05'1019.0
2018-May-14 00:30N 49°40' W 127°19'1019.4
2018-May-14 00:00N 49°41' W 127°34'917.8
2018-May-13 23:30N 49°44' W 127°47'917.0
2018-May-13 23:00N 49°49' W 127°57'916.9
2018-May-13 22:28N 49°55' W 128°08'1116.7
2018-May-13 21:50N 50°03' W 128°19'716.6
2018-May-13 21:26N 50°08' W 128°25'716.7
2018-May-13 21:01N 50°14' W 128°32'916.5
2018-May-13 20:28N 50°21' W 128°40'1416.6
2018-May-13 19:39N 50°32' W 128°53'216.6
2018-May-13 19:30N 50°34' W 128°55'  

Dump ship's entire track history